Time;durP1;ratioP1;P1;durP2;ratioP2;P2;SDS_P1;SDS_P2;PMS_P1;PMS_P2;Temp;Humidity;BMP_temperature;BMP_pressure;BME280_temperature;BME280_humidity;BME280_pressure;Samples;Min_cycle;Max_cycle;Signal;HPM_P1;HPM_P2
2022/01/04 00:00:28;;;;;;;24.73;10.40;;;;;;;10.55;63.16;99192.84;4969004;28;101588;-87
2022/01/04 00:02:55;;;;;;;15.00;7.35;;;;;;;10.32;63.96;99180.91;4960529;28;99982;-86
2022/01/04 00:05:20;;;;;;;8.57;3.60;;;;;;;10.39;63.63;99198.06;4986496;28;97293;-88
2022/01/04 00:07:46;;;;;;;5.75;2.58;;;;;;;10.36;63.34;99179.84;4961640;28;97202;-87
2022/01/04 00:10:12;;;;;;;6.75;3.40;;;;;;;10.33;63.79;99186.09;4998227;28;99932;-87
2022/01/04 00:15:22;;;;;;;6.57;3.05;;;;;;;10.23;63.60;99174.34;4988892;28;96925;-87
2022/01/04 00:17:48;;;;;;;11.73;4.47;;;;;;;10.40;63.34;99184.00;4970402;28;97324;-87
2022/01/04 00:20:14;;;;;;;5.68;2.50;;;;;;;10.27;63.98;99191.66;4966961;28;101587;-87
2022/01/04 00:22:39;;;;;;;6.00;2.17;;;;;;;10.30;63.58;99186.25;4951214;28;101231;-87
2022/01/04 00:25:06;;;;;;;5.22;2.60;;;;;;;10.30;63.83;99186.25;5022127;27;97202;-87
2022/01/04 00:27:31;;;;;;;4.13;2.33;;;;;;;10.13;63.55;99145.13;4980454;28;96841;-87
2022/01/04 00:29:57;;;;;;;4.65;2.13;;;;;;;10.25;63.26;99158.53;4976441;28;98294;-87
2022/01/04 00:32:23;;;;;;;4.85;2.10;;;;;;;10.38;63.43;99170.09;4983798;28;98123;-88
2022/01/04 00:34:49;;;;;;;6.25;2.60;;;;;;;10.37;63.28;99165.81;4956937;28;97181;-87
2022/01/04 00:37:15;;;;;;;3.70;2.35;;;;;;;10.16;62.98;99131.84;4972100;28;96899;-87
2022/01/04 00:39:41;;;;;;;7.88;2.50;;;;;;;10.25;63.84;99151.50;5001594;28;98483;-88
2022/01/04 00:42:06;;;;;;;9.23;2.80;;;;;;;10.28;63.31;99156.63;4956788;28;101382;-86
2022/01/04 00:44:32;;;;;;;4.90;2.50;;;;;;;10.17;64.06;99153.66;4951660;28;97139;-87
2022/01/04 00:46:59;;;;;;;5.60;2.15;;;;;;;10.17;63.89;99162.38;4946742;28;97206;-87
2022/01/04 00:49:24;;;;;;;5.68;3.13;;;;;;;10.11;63.55;99143.50;4976435;28;98594;-87
2022/01/04 00:51:51;;;;;;;5.40;2.70;;;;;;;10.11;63.89;99152.19;4981082;28;101371;-87
2022/01/04 00:54:18;;;;;;;7.82;2.58;;;;;;;10.07;63.82;99128.84;4960198;28;96826;-87
2022/01/04 00:56:44;;;;;;;5.95;3.17;;;;;;;10.07;63.32;99131.47;4959610;28;97037;-87
2022/01/04 00:59:10;;;;;;;12.70;3.38;;;;;;;10.10;63.69;99139.19;4959792;28;100051;-88
2022/01/04 01:01:36;;;;;;;15.30;3.63;;;;;;;10.11;63.65;99146.13;4976212;28;98164;-87
2022/01/04 01:04:03;;;;;;;8.65;3.55;;;;;;;10.13;63.85;99142.50;4976442;28;97189;-88
2022/01/04 01:06:29;;;;;;;8.98;2.90;;;;;;;10.18;63.75;99132.63;4959848;28;96939;-87
2022/01/04 01:08:54;;;;;;;5.78;2.42;;;;;;;10.13;63.07;99124.13;4987723;28;98693;-88
2022/01/04 01:11:20;;;;;;;6.13;2.65;;;;;;;9.90;63.21;99093.00;4976345;28;101383;-88
2022/01/04 01:13:46;;;;;;;3.05;1.90;;;;;;;10.05;63.28;99113.19;4959369;28;96732;-87
2022/01/04 01:16:12;;;;;;;5.25;1.92;;;;;;;10.04;63.82;99127.22;4960847;28;96808;-87
2022/01/04 01:18:38;;;;;;;3.38;1.60;;;;;;;10.06;63.29;99117.50;4992455;28;98035;-87
2022/01/04 01:21:05;;;;;;;2.45;1.30;;;;;;;10.18;62.79;99113.41;4959921;28;101883;-87
2022/01/04 01:23:31;;;;;;;2.50;1.52;;;;;;;10.12;62.96;99098.84;4976346;28;96739;-87
2022/01/04 01:25:57;;;;;;;30.45;13.93;;;;;;;10.14;63.13;99094.34;4991695;28;96644;-87
2022/01/04 01:28:23;;;;;;;44.20;23.45;;;;;;;10.09;63.06;99085.88;4941098;28;101802;-88
2022/01/04 01:30:48;;;;;;;20.77;10.50;;;;;;;10.07;62.92;99087.75;4955676;28;101102;-87
2022/01/04 01:33:14;;;;;;;4.82;3.05;;;;;;;10.03;62.90;99080.09;4956057;28;97087;-88
2022/01/04 01:35:41;;;;;;;2.63;1.63;;;;;;;9.94;62.63;99079.63;4956746;28;96960;-87
2022/01/04 01:38:08;;;;;;;3.97;1.60;;;;;;;9.90;63.11;99088.59;4972843;28;101098;-88
2022/01/04 01:40:35;;;;;;;2.55;1.38;;;;;;;9.87;62.88;99088.75;5005734;28;98322;-87
2022/01/04 01:43:00;;;;;;;2.50;1.40;;;;;;;9.92;62.73;99085.91;4960121;28;97402;-87
2022/01/04 01:45:26;;;;;;;2.58;1.60;;;;;;;9.97;62.49;99084.72;4955626;28;97241;-87
2022/01/04 01:47:52;;;;;;;2.50;1.05;;;;;;;9.98;62.19;99073.34;4988493;28;98072;-87
2022/01/04 01:50:18;;;;;;;2.75;1.50;;;;;;;10.05;61.99;99079.09;4956259;28;102024;-87
2022/01/04 01:52:46;;;;;;;3.15;1.40;;;;;;;9.92;62.01;99072.81;4972876;28;96675;-88
2022/01/04 01:55:13;;;;;;;4.13;1.52;;;;;;;9.84;62.48;99073.19;4956808;28;97190;-87
2022/01/04 01:57:39;;;;;;;2.80;1.70;;;;;;;9.90;62.33;99062.38;4955676;28;97744;-88
2022/01/04 02:00:07;;;;;;;2.30;1.30;;;;;;;9.51;62.58;99031.16;4957353;28;101285;-87
2022/01/04 02:02:33;;;;;;;2.88;1.48;;;;;;;9.68;63.28;99062.63;4971680;28;96949;-87
2022/01/04 02:04:58;;;;;;;3.05;1.38;;;;;;;9.77;62.51;99061.31;4972292;28;96861;-87
2022/01/04 02:07:24;;;;;;;3.30;1.40;;;;;;;9.77;63.37;99045.56;4988399;28;100721;-87
2022/01/04 02:10:02;;;;;;;2.28;1.42;;;;;;;9.63;63.35;99046.31;4974581;28;101043;-87
2022/01/04 02:12:27;;;;;;;3.80;1.50;;;;;;;9.65;63.20;99049.66;4990990;28;97095;-88
2022/01/04 02:14:55;;;;;;;1.90;1.30;;;;;;;9.65;63.60;99047.06;4975785;28;97448;-87
2022/01/04 02:17:20;;;;;;;2.78;1.38;;;;;;;9.72;62.92;99027.50;4991687;28;101532;-86
2022/01/04 02:19:46;;;;;;;2.53;1.20;;;;;;;9.58;63.14;99037.81;4977997;28;101274;-88
2022/01/04 02:22:12;;;;;;;4.20;1.50;;;;;;;9.60;63.10;99028.13;4962212;28;97644;-87
2022/01/04 02:24:37;;;;;;;3.17;1.45;;;;;;;9.58;63.30;99016.84;4947565;28;96776;-87
2022/01/04 02:27:04;;;;;;;3.38;1.58;;;;;;;9.72;63.43;99019.63;4969466;28;101273;-87
2022/01/04 02:29:29;;;;;;;3.05;1.30;;;;;;;9.65;63.15;99009.53;4988387;28;101531;-87
2022/01/04 02:31:55;;;;;;;2.70;1.40;;;;;;;9.50;63.72;99011.16;4991951;28;97102;-88
2022/01/04 02:34:20;;;;;;;3.38;1.38;;;;;;;9.40;64.19;99000.31;5001767;27;96832;-88
2022/01/04 02:36:46;;;;;;;4.10;1.30;;;;;;;9.52;63.84;98998.84;4978073;28;98478;-85
2022/01/04 02:39:12;;;;;;;2.45;1.25;;;;;;;9.27;64.62;98989.56;4980106;28;101719;-88
2022/01/04 02:41:37;;;;;;;1.80;1.00;;;;;;;9.41;64.12;98996.75;4971016;28;96705;-87
2022/01/04 02:44:04;;;;;;;5.78;1.65;;;;;;;9.03;65.35;98981.16;4978509;28;96899;-87
2022/01/04 02:46:29;;;;;;;3.53;1.20;;;;;;;9.07;65.20;99003.66;4972150;28;98030;-87
2022/01/04 02:48:55;;;;;;;1.45;0.88;;;;;;;9.02;65.41;98991.72;4956411;28;100074;-87
2022/01/04 02:51:20;;;;;;;4.78;0.98;;;;;;;9.13;65.49;98986.78;4953727;28;96766;-86
2022/01/04 02:53:46;;;;;;;1.30;0.80;;;;;;;9.11;65.17;98983.41;4950851;28;96848;-88
2022/01/04 02:56:14;;;;;;;1.55;1.02;;;;;;;9.22;65.25;98985.47;4978211;28;98359;-88
2022/01/04 02:58:39;;;;;;;2.10;1.08;;;;;;;9.05;65.27;98968.00;4956285;28;101601;-89
2022/01/04 03:01:05;;;;;;;1.10;1.00;;;;;;;8.97;65.56;98954.44;4951654;28;97175;-88
2022/01/04 03:03:31;;;;;;;2.85;1.65;;;;;;;9.09;65.21;98974.78;4980849;28;96724;-88
2022/01/04 03:05:57;;;;;;;2.40;1.30;;;;;;;8.99;65.10;98960.47;4974277;28;98480;-88
2022/01/04 03:08:23;;;;;;;2.05;1.20;;;;;;;9.17;65.31;98974.41;5017603;27;97818;-88
2022/01/04 03:10:50;;;;;;;1.90;1.50;;;;;;;9.18;64.57;98953.38;4947399;28;96635;-87
2022/01/04 03:13:16;;;;;;;2.22;1.40;;;;;;;9.02;65.07;98957.69;4963440;28;97347;-87
2022/01/04 03:15:43;;;;;;;2.70;1.48;;;;;;;9.05;64.91;98942.69;4977828;28;98171;-88
2022/01/04 03:18:09;;;;;;;1.70;1.27;;;;;;;9.13;65.09;98950.13;4972164;28;101352;-88
2022/01/04 03:20:34;;;;;;;3.33;1.33;;;;;;;9.01;64.41;98909.72;4960632;28;96891;-88
2022/01/04 03:23:00;;;;;;;2.33;1.15;;;;;;;9.07;64.45;98926.88;4978575;28;96793;-87
2022/01/04 03:25:26;;;;;;;1.92;1.20;;;;;;;9.07;64.71;98932.13;4969123;28;97392;-87
2022/01/04 03:27:52;;;;;;;2.55;1.05;;;;;;;9.06;64.46;98922.56;4958537;28;100655;-87
2022/01/04 03:30:18;;;;;;;2.30;1.23;;;;;;;8.96;64.98;98916.09;4975101;28;96633;-87
2022/01/04 03:32:43;;;;;;;1.48;0.90;;;;;;;9.06;64.59;98926.03;4974834;28;96795;-88
2022/01/04 03:35:09;;;;;;;1.60;1.08;;;;;;;9.05;64.85;98926.97;4974977;28;101366;-88
2022/01/04 03:37:35;;;;;;;1.98;1.20;;;;;;;9.07;64.92;98922.53;4961081;28;101384;-86
2022/01/04 03:40:00;;;;;;;1.67;0.80;;;;;;;8.81;64.25;98878.44;4965886;28;97422;-87
2022/01/04 03:42:26;;;;;;;1.27;0.82;;;;;;;9.06;64.35;98918.19;4976616;28;96794;-87
2022/01/04 03:44:52;;;;;;;1.00;0.73;;;;;;;9.14;64.19;98909.13;4962056;28;101094;-84
2022/01/04 03:47:17;;;;;;;1.92;1.00;;;;;;;9.12;64.48;98909.19;4962738;28;100606;-85
2022/01/04 03:49:43;;;;;;;0.63;0.63;;;;;;;9.03;64.45;98894.78;4975258;28;96780;-84
2022/01/04 03:52:08;;;;;;;1.15;0.80;;;;;;;8.99;64.86;98900.28;4953572;28;96851;-86
2022/01/04 03:54:34;;;;;;;1.20;0.80;;;;;;;8.87;65.07;98885.16;5009195;28;100900;-87
2022/01/04 03:56:59;;;;;;;3.45;1.00;;;;;;;8.90;65.33;98895.47;4960381;28;101602;-87
2022/01/04 03:59:25;;;;;;;1.50;0.93;;;;;;;8.84;65.33;98878.28;4963117;28;96697;-86
2022/01/04 04:01:50;;;;;;;1.75;0.80;;;;;;;8.92;65.68;98884.00;4978353;28;97368;-87
2022/01/04 04:04:17;;;;;;;2.47;1.20;;;;;;;8.84;65.05;98862.59;4968517;28;101205;-87
2022/01/04 04:06:42;;;;;;;0.98;0.80;;;;;;;8.96;65.23;98879.44;4980521;28;101568;-86
2022/01/04 04:09:08;;;;;;;0.80;0.70;;;;;;;8.94;65.05;98858.59;4962370;28;96872;-86
2022/01/04 04:11:34;;;;;;;0.60;0.60;;;;;;;8.99;65.15;98871.47;4963648;28;97254;-87
2022/01/04 04:13:59;;;;;;;1.63;1.05;;;;;;;8.96;65.33;98866.38;4963386;28;101459;-86
2022/01/04 04:16:25;;;;;;;2.70;1.52;;;;;;;8.94;65.08;98876.09;4972672;28;101753;-87
2022/01/04 04:18:50;;;;;;;2.38;1.00;;;;;;;8.70;65.55;98833.69;4951597;28;96585;-87
2022/01/04 04:21:16;;;;;;;2.15;1.23;;;;;;;8.88;65.85;98860.69;4977149;28;97140;-87
2022/01/04 04:23:42;;;;;;;1.50;0.90;;;;;;;8.80;65.06;98840.13;4964099;28;100155;-87
2022/01/04 04:26:07;;;;;;;4.30;0.82;;;;;;;9.00;65.02;98860.91;4962660;28;101501;-87
2022/01/04 04:28:33;;;;;;;1.55;0.95;;;;;;;8.77;65.87;98848.97;4975142;28;97136;-87
2022/01/04 04:30:59;;;;;;;2.38;0.95;;;;;;;8.72;65.77;98834.44;4976654;28;97844;-87
2022/01/04 04:33:24;;;;;;;4.47;0.93;;;;;;;8.81;66.17;98840.06;4979210;28;100858;-86
2022/01/04 04:35:50;;;;;;;2.33;1.02;;;;;;;8.90;65.41;98854.47;4991579;28;101519;-87
2022/01/04 04:38:15;;;;;;;1.98;1.38;;;;;;;8.91;66.05;98847.47;4993774;28;96675;-86
2022/01/04 04:40:41;;;;;;;2.17;1.25;;;;;;;8.89;66.00;98839.66;4973679;28;97416;-85
2022/01/04 04:43:07;;;;;;;2.92;0.80;;;;;;;8.96;65.88;98846.31;4959958;28;101206;-86
2022/01/04 04:45:33;;;;;;;1.98;0.82;;;;;;;8.94;65.88;98845.53;4960425;28;100622;-87
2022/01/04 04:47:58;;;;;;;1.70;1.00;;;;;;;8.88;65.79;98830.13;4976599;28;96712;-87
2022/01/04 04:50:24;;;;;;;1.42;0.90;;;;;;;8.88;66.14;98835.38;4961149;28;97152;-86
2022/01/04 04:52:49;;;;;;;2.15;1.00;;;;;;;8.76;66.36;98812.44;4976087;28;100587;-87
2022/01/04 04:55:15;;;;;;;5.78;1.10;;;;;;;8.96;66.13;98835.84;4956094;28;101731;-87
2022/01/04 04:57:41;;;;;;;2.05;1.20;;;;;;;8.74;66.07;98806.44;4960066;28;96988;-86
2022/01/04 05:00:08;;;;;;;2.10;1.10;;;;;;;8.95;66.26;98834.13;4960761;28;96748;-87
2022/01/04 05:02:34;;;;;;;2.25;0.90;;;;;;;8.99;66.31;98832.22;4959939;28;100502;-87
2022/01/04 05:04:59;;;;;;;3.03;1.15;;;;;;;8.87;66.24;98799.63;4960024;28;101327;-87
2022/01/04 05:07:26;;;;;;;1.77;1.10;;;;;;;9.04;65.88;98810.09;4960074;28;96746;-86
2022/01/04 05:09:51;;;;;;;2.42;1.27;;;;;;;9.05;66.22;98814.41;4993596;28;96750;-87
2022/01/04 05:12:17;;;;;;;1.90;1.20;;;;;;;9.01;66.47;98810.25;4970917;28;100232;-86
2022/01/04 05:14:46;;;;;;;2.70;1.58;;;;;;;9.06;65.94;98803.00;4975625;28;98558;-86
2022/01/04 05:17:13;;;;;;;2.17;1.30;;;;;;;8.93;65.97;98790.63;4976418;28;97063;-87
2022/01/04 05:19:38;;;;;;;3.30;1.27;;;;;;;9.01;66.63;98805.00;4985737;28;96767;-87
2022/01/04 05:22:04;;;;;;;1.98;1.15;;;;;;;9.01;66.27;98806.78;4966750;28;100853;-87
2022/01/04 05:24:30;;;;;;;2.78;1.42;;;;;;;9.03;66.14;98790.09;4959621;28;101747;-87
2022/01/04 05:26:55;;;;;;;2.55;1.52;;;;;;;9.03;66.32;98797.94;4958693;28;97859;-86
2022/01/04 05:29:21;;;;;;;3.05;1.52;;;;;;;8.90;66.39;98767.22;4955025;28;97380;-87
2022/01/04 05:31:46;;;;;;;3.03;1.50;;;;;;;9.12;66.34;98790.53;4974786;28;99441;-86
2022/01/04 05:34:12;;;;;;;4.25;1.70;;;;;;;9.20;66.08;98791.81;4959370;28;101104;-86
2022/01/04 05:36:38;;;;;;;5.28;1.65;;;;;;;9.09;66.27;98781.06;4989412;28;96977;-86
2022/01/04 05:39:03;;;;;;;4.47;1.50;;;;;;;9.15;66.01;98778.13;4982638;28;97208;-87
2022/01/04 05:41:29;;;;;;;3.05;1.50;;;;;;;9.05;66.76;98769.91;4959187;28;101592;-87
2022/01/04 05:43:54;;;;;;;2.83;1.60;;;;;;;9.22;66.69;98779.50;4977127;28;100969;-87
2022/01/04 05:46:20;;;;;;;3.65;1.85;;;;;;;9.14;66.26;98760.72;4959703;28;97434;-87
2022/01/04 05:48:45;;;;;;;4.13;1.83;;;;;;;9.19;66.45;98763.97;4958325;28;96920;-87
2022/01/04 05:51:11;;;;;;;3.58;1.80;;;;;;;9.28;66.27;98767.88;4995861;28;101664;-86
2022/01/04 05:53:36;;;;;;;3.90;1.75;;;;;;;9.12;66.51;98756.50;4979420;28;99573;-87
2022/01/04 05:56:02;;;;;;;3.53;2.08;;;;;;;9.17;66.53;98751.88;4956706;28;96609;-86
2022/01/04 05:58:28;;;;;;;3.60;1.58;;;;;;;9.10;67.12;98732.16;4955729;28;96850;-88
2022/01/04 06:00:54;;;;;;;4.60;1.90;;;;;;;9.19;67.08;98743.03;4955611;28;101175;-86
2022/01/04 06:03:19;;;;;;;3.78;1.95;;;;;;;9.18;66.94;98743.09;4976955;28;101588;-85
2022/01/04 06:05:45;;;;;;;4.45;2.25;;;;;;;9.09;67.54;98736.56;4962284;28;96862;-86
2022/01/04 06:08:11;;;;;;;2.85;1.55;;;;;;;9.00;67.61;98729.19;4977130;28;97007;-92
2022/01/04 06:10:40;;;;;;;5.03;2.22;;;;;;;9.05;68.04;98742.91;4956387;28;99919;-88
2022/01/04 06:15:31;;;;;;;4.68;2.30;;;;;;;9.06;67.28;98741.97;4978411;28;96985;-85
2022/01/04 06:17:58;;;;;;;4.82;2.28;;;;;;;8.94;67.99;98708.59;4984197;28;96973;-86
2022/01/04 06:20:24;;;;;;;3.88;1.95;;;;;;;9.07;67.82;98712.22;4978863;28;97270;-84
2022/01/04 06:22:54;;;;;;;4.53;1.80;;;;;;;8.87;67.86;98671.41;4961726;28;100909;-88
2022/01/04 06:25:22;;;;;;;4.50;2.33;;;;;;;8.95;68.37;98703.25;4971519;28;97296;-84
2022/01/04 06:27:49;;;;;;;4.78;2.53;;;;;;;8.94;68.49;98698.13;4958831;28;96911;-86
2022/01/04 06:30:20;;;;;;;3.90;2.22;;;;;;;9.10;68.26;98709.44;4942608;28;101601;-84
2022/01/04 06:32:46;;;;;;;4.65;2.33;;;;;;;8.92;67.92;98689.50;4958812;28;98878;-86
2022/01/04 06:35:13;;;;;;;6.00;2.72;;;;;;;8.99;68.63;98703.97;4946931;28;98008;-84
2022/01/04 06:37:41;;;;;;;5.22;2.70;;;;;;;8.92;69.00;98689.50;4958632;28;96849;-84
2022/01/04 06:40:08;;;;;;;6.75;2.60;;;;;;;8.78;69.43;98700.69;4974802;28;100876;-85
2022/01/04 06:42:33;;;;;;;4.53;2.40;;;;;;;8.80;69.63;98702.31;4975054;28;97438;-88
2022/01/04 06:44:59;;;;;;;4.45;2.67;;;;;;;8.77;69.71;98684.16;4958055;28;97159;-85
2022/01/04 06:47:25;;;;;;;7.93;2.80;;;;;;;8.83;70.00;98704.75;4965817;28;96656;-85
2022/01/04 06:49:50;;;;;;;4.68;2.60;;;;;;;8.85;69.99;98702.06;4993780;28;98574;-85
2022/01/04 06:52:16;;;;;;;7.07;2.33;;;;;;;8.76;69.95;98686.88;4991708;28;97902;-86
2022/01/04 06:54:41;;;;;;;6.43;2.53;;;;;;;8.69;69.69;98675.84;4960302;28;97123;-85
2022/01/04 06:57:07;;;;;;;6.13;2.75;;;;;;;8.88;69.99;98693.22;4974439;28;97111;-85
2022/01/04 06:59:32;;;;;;;8.15;3.55;;;;;;;8.81;69.50;98672.63;4978096;28;98439;-86
2022/01/04 07:02:00;;;;;;;6.95;3.15;;;;;;;8.86;69.94;98684.59;4992912;28;97355;-85
2022/01/04 07:04:25;;;;;;;6.22;3.00;;;;;;;8.88;70.05;98667.06;4974594;28;96890;-84
2022/01/04 07:06:51;;;;;;;6.97;2.90;;;;;;;8.91;70.32;98683.44;4961347;28;97080;-86
2022/01/04 07:09:16;;;;;;;4.05;2.22;;;;;;;8.96;69.64;98675.31;4946420;28;101285;-86
2022/01/04 07:11:42;;;;;;;5.95;2.80;;;;;;;9.02;69.87;98670.63;4981740;28;100357;-85
2022/01/04 07:14:07;;;;;;;8.18;2.92;;;;;;;8.91;70.20;98666.88;4979472;28;96650;-85
2022/01/04 07:16:33;;;;;;;7.18;2.90;;;;;;;8.89;70.49;98666.13;4976754;28;97366;-85
2022/01/04 07:18:59;;;;;;;7.97;3.38;;;;;;;8.90;70.89;98666.03;5002055;28;100056;-85
2022/01/04 07:21:24;;;;;;;7.63;3.00;;;;;;;8.94;71.07;98661.50;4962561;28;98121;-85
2022/01/04 07:23:50;;;;;;;8.85;4.35;;;;;;;8.74;70.68;98637.22;4961103;28;96869;-86
2022/01/04 07:26:16;;;;;;;7.97;3.70;;;;;;;8.77;71.62;98644.91;4971142;28;96938;-86
2022/01/04 07:28:44;;;;;;;8.85;3.92;;;;;;;8.77;71.56;98634.44;4960637;28;100813;-86
2022/01/04 07:31:10;;;;;;;6.60;3.92;;;;;;;8.79;72.01;98639.59;4963046;28;100224;-81
2022/01/04 07:33:37;;;;;;;10.13;3.67;;;;;;;8.73;72.27;98640.78;4971130;28;96783;-87
2022/01/04 07:36:03;;;;;;;9.35;4.38;;;;;;;8.68;72.10;98608.78;4969263;28;96633;-86
2022/01/04 07:38:29;;;;;;;7.15;3.95;;;;;;;8.90;72.10;98632.03;4960029;28;101304;-89
2022/01/04 07:40:54;;;;;;;8.95;3.42;;;;;;;8.78;71.91;98624.81;4959756;28;101605;-89
2022/01/04 07:43:20;;;;;;;7.80;4.07;;;;;;;8.78;72.03;98617.81;4974268;28;97196;-89
2022/01/04 07:45:45;;;;;;;8.35;4.38;;;;;;;8.78;72.26;98594.25;4953847;28;97976;-90
2022/01/04 07:48:11;;;;;;;10.85;3.95;;;;;;;8.79;72.13;98589.91;4958768;28;101887;-89
2022/01/04 07:50:38;;;;;;;12.68;4.38;;;;;;;8.78;72.74;98575.94;4980021;28;101384;-88
2022/01/04 07:53:04;;;;;;;11.95;4.43;;;;;;;8.72;73.09;98586.75;4982016;28;97166;-88
2022/01/04 07:55:30;;;;;;;9.35;3.83;;;;;;;8.59;73.16;98570.03;4971820;28;97176;-87
2022/01/04 07:57:56;;;;;;;7.25;3.08;;;;;;;8.66;72.84;98574.00;4984938;28;97895;-88
2022/01/04 08:00:24;;;;;;;7.40;3.17;;;;;;;8.76;73.28;98576.97;4973991;28;101608;-87
2022/01/04 08:02:50;;;;;;;6.68;3.58;;;;;;;8.77;72.79;98561.19;4975472;28;96866;-89
2022/01/04 08:05:15;;;;;;;7.07;3.53;;;;;;;8.77;72.94;98544.66;4960329;28;97019;-88
2022/01/04 08:07:41;;;;;;;12.65;3.78;;;;;;;8.73;72.78;98530.91;4966249;28;100201;-88
2022/01/04 08:10:07;;;;;;;6.32;2.95;;;;;;;8.79;73.30;98541.03;4956996;28;101065;-87
2022/01/04 08:12:33;;;;;;;8.40;2.80;;;;;;;8.71;73.34;98535.38;4974230;28;97079;-89
2022/01/04 08:14:58;;;;;;;7.15;2.90;;;;;;;8.82;72.82;98519.91;4957881;28;96622;-89
2022/01/04 08:17:24;;;;;;;9.43;3.45;;;;;;;8.54;73.52;98491.81;4957465;28;100530;-88
2022/01/04 08:19:52;;;;;;;7.28;3.20;;;;;;;8.77;73.03;98521.94;4961026;28;100777;-88
2022/01/04 08:22:18;;;;;;;9.63;2.92;;;;;;;8.91;73.16;98513.34;4985498;28;97235;-86
2022/01/04 08:24:43;;;;;;;7.22;3.10;;;;;;;8.72;72.89;98484.72;5015389;27;96944;-88
2022/01/04 08:27:09;;;;;;;6.93;4.07;;;;;;;8.88;73.01;98504.81;4958795;28;101358;-88
2022/01/04 08:29:35;;;;;;;7.13;4.20;;;;;;;8.86;73.37;98504.88;4982392;28;98393;-89
2022/01/04 08:32:00;;;;;;;13.27;8.05;;;;;;;8.82;73.66;98504.22;4974755;28;96984;-88
2022/01/04 08:34:26;;;;;;;24.50;15.68;;;;;;;8.80;73.73;98493.00;4975744;28;96720;-88
2022/01/04 08:36:52;;;;;;;18.27;10.80;;;;;;;8.87;73.33;98490.03;4989140;28;97951;-89
2022/01/04 08:39:18;;;;;;;19.10;12.02;;;;;;;8.81;73.63;98476.38;4958427;28;101020;-87
2022/01/04 08:41:49;;;;;;;14.43;8.35;;;;;;;9.02;73.73;98482.19;4957946;28;97905;-87
2022/01/04 08:44:14;;;;;;;81.50;42.13;;;;;;;8.95;73.47;98472.13;4969600;28;98380;-87
2022/01/04 08:46:40;;;;;;;23.75;13.82;;;;;;;8.92;73.91;98481.00;4979150;28;101920;-88
2022/01/04 08:49:09;;;;;;;28.67;14.77;;;;;;;9.03;73.58;98486.47;4980454;28;97787;-86
2022/01/04 08:51:35;;;;;;;15.75;6.97;;;;;;;8.99;73.83;98478.91;4966005;28;96754;-87
2022/01/04 08:54:01;;;;;;;10.57;5.88;;;;;;;9.09;73.25;98480.03;4967962;28;97393;-88
2022/01/04 08:56:27;;;;;;;22.27;10.57;;;;;;;9.07;73.26;98487.13;4973919;28;101441;-87
2022/01/04 08:58:53;;;;;;;14.10;8.57;;;;;;;8.96;73.48;98458.09;4981576;28;97732;-87
2022/01/04 09:01:18;;;;;;;28.52;15.52;;;;;;;8.83;73.75;98456.19;4964693;28;97122;-86
2022/01/04 09:03:44;;;;;;;10.15;5.40;;;;;;;8.96;74.24;98463.34;4957651;28;97313;-87
2022/01/04 09:06:11;;;;;;;15.20;7.93;;;;;;;8.83;73.44;98429.19;4981264;28;97689;-87
2022/01/04 09:08:36;;;;;;;12.05;7.53;;;;;;;9.11;73.39;98456.41;4981560;28;97851;-88
2022/01/04 09:11:02;;;;;;;12.35;7.53;;;;;;;9.12;73.59;98456.31;4956808;28;96823;-87
2022/01/04 09:13:37;;;;;;;8.18;4.93;;;;;;;9.20;73.28;98456.72;4966414;28;96788;-88
2022/01/04 09:18:50;;;;;;;13.30;6.65;;;;;;;9.30;72.54;98446.53;4963019;28;101595;-87
2022/01/04 09:21:25;;;;;;;14.25;8.95;;;;;;;9.26;73.20;98458.97;4963570;28;96671;-86
2022/01/04 09:23:53;;;;;;;13.38;6.10;;;;;;;9.40;72.46;98445.09;4974681;28;97169;-88
2022/01/04 09:26:19;;;;;;;13.10;7.50;;;;;;;9.21;73.13;98445.28;5005321;28;100337;-87
2022/01/04 09:28:45;;;;;;;20.92;9.38;;;;;;;9.13;73.14;98423.13;4944379;28;101343;-87
2022/01/04 09:31:11;;;;;;;14.65;8.43;;;;;;;9.10;73.78;98431.97;4980203;28;96798;-87
2022/01/04 09:33:37;;;;;;;12.70;6.45;;;;;;;9.17;73.23;98427.25;4960014;28;97324;-88
2022/01/04 09:36:04;;;;;;;11.88;5.90;;;;;;;9.15;73.57;98427.34;4971112;28;101072;-88
2022/01/04 09:38:30;;;;;;;10.98;4.80;;;;;;;9.02;73.51;98384.50;4974051;28;101075;-88
2022/01/04 09:40:56;;;;;;;14.65;7.68;;;;;;;9.39;73.30;98411.13;4957696;28;97202;-87
2022/01/04 09:43:22;;;;;;;11.00;5.43;;;;;;;9.32;73.67;98410.63;4977158;28;96949;-88
2022/01/04 09:45:48;;;;;;;13.35;6.60;;;;;;;9.18;73.04;98361.72;4984222;28;100192;-88
2022/01/04 09:48:14;;;;;;;11.48;6.28;;;;;;;9.42;73.21;98387.34;4958014;28;100958;-87
2022/01/04 09:50:41;;;;;;;12.85;7.35;;;;;;;9.40;73.19;98382.22;4943623;28;96641;-89
2022/01/04 09:53:09;;;;;;;13.50;8.73;;;;;;;9.45;73.46;98377.56;4953686;28;97983;-88
2022/01/04 09:55:38;;;;;;;13.50;8.00;;;;;;;9.53;72.59;98374.47;4958789;28;101882;-89
2022/01/04 09:58:04;;;;;;;13.95;6.78;;;;;;;9.41;72.80;98362.97;4974603;28;97481;-87
2022/01/04 10:00:30;;;;;;;12.75;6.90;;;;;;;9.50;72.61;98357.16;4958284;28;97038;-89
2022/01/04 10:03:29;;;;;;;12.90;7.30;;;;;;;9.46;72.63;98353.06;4978562;28;97290;-86
2022/01/04 10:06:05;;;;;;;9.48;6.10;;;;;;;9.46;72.80;98347.81;4968834;28;101512;-87
2022/01/04 10:08:31;;;;;;;11.82;6.28;;;;;;;9.42;72.74;98319.28;4980834;28;97268;-88
2022/01/04 10:11:08;;;;;;;8.93;5.30;;;;;;;9.45;72.43;98308.59;4973869;28;97352;-87
2022/01/04 10:13:33;;;;;;;9.88;5.75;;;;;;;9.48;72.35;98324.13;4971810;28;96879;-87
2022/01/04 10:15:59;;;;;;;11.50;5.72;;;;;;;9.49;72.14;98318.81;4974990;28;98218;-88
2022/01/04 10:18:28;;;;;;;12.48;5.63;;;;;;;9.39;72.43;98301.13;4951157;28;101370;-88
2022/01/04 10:21:02;;;;;;;9.57;5.70;;;;;;;9.34;72.11;98297.94;4975155;28;97248;-87
2022/01/04 10:23:28;;;;;;;7.80;4.80;;;;;;;9.43;72.08;98313.13;4984767;28;96693;-87
2022/01/04 10:26:04;;;;;;;10.25;5.55;;;;;;;9.48;71.77;98311.91;4990017;28;97734;-87
2022/01/04 10:28:36;;;;;;;8.63;4.30;;;;;;;9.43;72.26;98311.34;4976565;28;101422;-87
2022/01/04 10:31:04;;;;;;;8.93;4.90;;;;;;;9.38;72.26;98296.84;4969296;28;96727;-85
2022/01/04 10:33:31;;;;;;;9.95;4.22;;;;;;;9.57;72.10;98297.41;4977576;28;96750;-85
2022/01/04 10:35:58;;;;;;;9.40;4.95;;;;;;;9.59;71.94;98302.53;4969097;28;99840;-84
2022/01/04 10:38:30;;;;;;;9.73;4.43;;;;;;;9.59;72.00;98297.28;4966831;28;101545;-84
2022/01/04 10:41:02;;;;;;;8.40;4.47;;;;;;;9.46;72.58;98273.66;4966372;28;96937;-83
2022/01/04 10:43:32;;;;;;;8.07;4.90;;;;;;;9.52;72.04;98287.19;4983166;28;97573;-84
2022/01/04 10:46:00;;;;;;;9.73;4.67;;;;;;;9.52;72.21;98278.50;4971526;28;101456;-84
2022/01/04 10:48:32;;;;;;;9.70;4.68;;;;;;;9.66;72.21;98268.00;4974810;28;100352;-81
2022/01/04 10:51:22;;;;;;;9.63;5.75;;;;;;;9.65;71.70;98262.84;4957948;28;97153;-82
2022/01/04 10:53:50;;;;;;;10.13;5.72;;;;;;;9.77;71.60;98258.63;4960613;28;96806;-81
2022/01/04 10:56:25;;;;;;;9.73;5.00;;;;;;;9.68;71.45;98233.84;4957234;28;101312;-85
2022/01/04 10:58:52;;;;;;;9.07;4.57;;;;;;;9.52;71.87;98215.66;4954248;28;101761;-81
2022/01/04 11:01:21;;;;;;;10.02;5.03;;;;;;;9.70;71.69;98245.06;4960682;28;96891;-83
2022/01/04 11:03:54;;;;;;;9.02;4.88;;;;;;;9.60;71.79;98223.00;4977772;28;97228;-84
2022/01/04 11:06:27;;;;;;;12.20;5.03;;;;;;;9.73;71.71;98231.78;5001938;28;101116;-83
2022/01/04 11:08:53;;;;;;;13.82;4.80;;;;;;;9.73;71.99;98227.38;4969506;28;101374;-85
2022/01/04 11:11:19;;;;;;;10.55;4.65;;;;;;;9.82;71.88;98227.72;4962800;28;97248;-82
2022/01/04 11:13:45;;;;;;;10.75;5.07;;;;;;;9.81;71.92;98211.16;4983609;28;96846;-82
2022/01/04 11:16:10;;;;;;;9.93;4.80;;;;;;;9.82;72.09;98199.75;4955499;28;101124;-83
2022/01/04 11:18:41;;;;;;;11.15;4.72;;;;;;;9.84;71.52;98197.88;4987582;28;98530;-85
2022/01/04 11:21:12;;;;;;;8.07;4.30;;;;;;;9.84;71.77;98199.66;4955509;28;97235;-81
2022/01/04 11:23:39;;;;;;;12.50;4.80;;;;;;;9.83;71.75;98184.84;4964689;28;97104;-80
2022/01/04 11:26:05;;;;;;;9.45;4.40;;;;;;;9.89;71.56;98182.69;4954777;28;101008;-83
2022/01/04 11:28:30;;;;;;;10.50;4.25;;;;;;;9.95;71.16;98181.47;4969313;28;101760;-83
2022/01/04 11:31:38;;;;;;;8.82;4.40;;;;;;;9.94;71.56;98182.38;4973710;28;96744;-83
2022/01/04 11:34:10;;;;;;;8.57;4.53;;;;;;;9.89;71.49;98171.34;4953397;28;96903;-84
2022/01/04 11:36:42;;;;;;;9.98;5.00;;;;;;;9.93;71.73;98184.16;4953419;28;98213;-84
2022/01/04 11:39:27;;;;;;;10.57;4.82;;;;;;;9.95;71.55;98157.88;4931076;28;102005;-84
2022/01/04 11:41:52;;;;;;;9.95;5.00;;;;;;;10.01;70.78;98149.59;4933595;28;97176;-83